createdAt,value
2019-02-15T00:00:02.939Z,80.2
2019-02-15T00:01:03.597Z,82.1
2019-02-15T00:02:03.140Z,82.1
2019-02-15T00:03:03.527Z,79.5
2019-02-15T00:04:03.166Z,79.5
2019-02-15T00:05:03.478Z,79.1
2019-02-15T00:06:03.291Z,79.1
2019-02-15T00:07:03.785Z,78.6
2019-02-15T00:08:03.061Z,77.7
2019-02-15T00:09:03.896Z,77.7
2019-02-15T00:10:03.496Z,77.9
2019-02-15T00:11:03.545Z,78.4
2019-02-15T00:12:03.516Z,78.6
2019-02-15T00:13:02.997Z,79.1
2019-02-15T00:14:03.505Z,79.8
2019-02-15T00:15:03.622Z,79.5
2019-02-15T00:16:03.001Z,80.9
2019-02-15T00:17:03.297Z,80.9
2019-02-15T00:18:03.128Z,80.7
2019-02-15T00:19:03.619Z,80.7
2019-02-15T00:20:03.141Z,80.7
2019-02-15T00:21:03.190Z,80.7
2019-02-15T00:22:02.942Z,81.4
2019-02-15T00:23:03.225Z,81.4
2019-02-15T00:24:03.294Z,82.6
2019-02-15T00:25:03.689Z,83.7
2019-02-15T00:26:03.233Z,83.7
2019-02-15T00:27:03.575Z,84
2019-02-15T00:28:03.178Z,84
2019-02-15T00:29:03.671Z,82.8
2019-02-15T00:30:03.471Z,82.8
2019-02-15T00:31:03.645Z,82.8
2019-02-15T00:32:03.199Z,82.8
2019-02-15T00:33:03.746Z,83.7
2019-02-15T00:34:03.012Z,83.7
2019-02-15T00:35:03.643Z,85.4
2019-02-15T00:36:02.913Z,85.8
2019-02-15T00:37:03.789Z,85.8
2019-02-15T00:38:03.224Z,87.5
2019-02-15T00:39:03.314Z,87
2019-02-15T00:40:03.826Z,88.4
2019-02-15T00:41:02.944Z,88.4
2019-02-15T00:42:03.607Z,87.5
2019-02-15T00:43:03.024Z,87.5
2019-02-15T00:44:03.548Z,87.9
2019-02-15T00:45:03.167Z,87.9
2019-02-15T00:46:03.428Z,88.6
2019-02-15T00:47:03.627Z,88.6
2019-02-15T00:48:03.064Z,88.4
2019-02-15T00:49:02.834Z,90.3
2019-02-15T00:50:03.097Z,90.3
2019-02-15T00:51:02.774Z,90.5
2019-02-15T00:52:02.755Z,94
2019-02-15T00:53:03.442Z,94.7
2019-02-15T00:54:03.172Z,94.7
2019-02-15T00:55:03.675Z,95.6
2019-02-15T00:56:03.058Z,95.4
2019-02-15T00:57:03.316Z,95.4
2019-02-15T00:58:03.605Z,95.4
2019-02-15T00:59:03.178Z,95.6
2019-02-15T01:00:03.859Z,95.6
2019-02-15T01:01:03.184Z,96.3
2019-02-15T01:02:02.998Z,96.3
2019-02-15T01:03:02.918Z,97.3
2019-02-15T01:04:02.781Z,96.8
2019-02-15T01:05:02.862Z,96.8
2019-02-15T01:06:03.773Z,97
2019-02-15T01:07:03.145Z,96.3
2019-02-15T01:08:03.437Z,95.9
2019-02-15T01:09:03.713Z,95.9
2019-02-15T01:10:03.296Z,94
2019-02-15T01:11:03.606Z,94
2019-02-15T01:12:03.077Z,93.1
2019-02-15T01:13:02.895Z,93.1
2019-02-15T01:14:03.247Z,92.8
2019-02-15T01:15:03.993Z,92.8
2019-02-15T01:16:03.141Z,93.3
2019-02-15T01:17:03.960Z,95.2
2019-02-15T01:18:03.137Z,95.2
2019-02-15T01:19:02.996Z,95.4
2019-02-15T01:20:03.200Z,94.7
2019-02-15T01:21:02.853Z,94.9
2019-02-15T01:22:03.295Z,94.9
2019-02-15T01:23:02.988Z,96.8
2019-02-15T01:24:03.181Z,96.8
2019-02-15T01:25:03.564Z,97.7
2019-02-15T01:26:03.683Z,97.7
2019-02-15T01:27:03.336Z,98.2
2019-02-15T01:28:02.995Z,98.2
2019-02-15T01:29:03.376Z,98.7
2019-02-15T01:30:03.594Z,98.7
2019-02-15T01:31:03.334Z,98.7
2019-02-15T01:32:03.723Z,98.9
2019-02-15T01:33:03.255Z,97.5
2019-02-15T01:34:03.760Z,97
2019-02-15T01:35:03.029Z,97
2019-02-15T01:36:03.380Z,97.7
2019-02-15T01:37:03.350Z,97.7
2019-02-15T01:38:03.528Z,98.2
2019-02-15T01:39:02.992Z,98.2
2019-02-15T01:40:03.470Z,98.7
2019-02-15T01:41:03.641Z,98.7
2019-02-15T01:42:03.173Z,99.6
2019-02-15T01:43:03.574Z,99.6
2019-02-15T01:44:02.985Z,99.1
2019-02-15T01:45:03.628Z,97.5
2019-02-15T01:46:03.288Z,97.5
2019-02-15T01:47:03.629Z,98.4
2019-02-15T01:48:02.952Z,98.7
2019-02-15T01:49:03.195Z,98
2019-02-15T01:50:03.489Z,98
2019-02-15T01:51:02.988Z,96.1
2019-02-15T01:52:02.977Z,96.1
2019-02-15T01:53:03.347Z,94.9
2019-02-15T01:54:03.005Z,94.9
2019-02-15T01:55:03.340Z,94.9
2019-02-15T01:56:02.714Z,94.9
2019-02-15T01:57:02.914Z,95.2
2019-02-15T01:58:02.788Z,94.7
2019-02-15T01:59:03.419Z,94.5
2019-02-15T02:00:03.324Z,94.2
2019-02-15T02:01:03.402Z,91.7
2019-02-15T02:02:03.073Z,92.1
2019-02-15T02:03:03.232Z,92.1
2019-02-15T02:04:02.929Z,92.1
2019-02-15T02:05:03.589Z,91.9
2019-02-15T02:06:03.544Z,91.9
2019-02-15T02:07:03.228Z,91.9
2019-02-15T02:08:03.562Z,92.6
2019-02-15T02:09:03.039Z,92.6
2019-02-15T02:10:03.406Z,92.6
2019-02-15T02:11:03.098Z,93.3
2019-02-15T02:12:03.367Z,94.2
2019-02-15T02:13:03.240Z,94.9
2019-02-15T02:14:03.311Z,94.9
2019-02-15T02:15:04.034Z,93.5
2019-02-15T02:16:03.322Z,93.5
2019-02-15T02:17:03.540Z,93.5
2019-02-15T02:18:03.230Z,93.5
2019-02-15T02:19:03.643Z,93.5
2019-02-15T02:20:03.111Z,93.5
2019-02-15T02:21:03.419Z,93.5
2019-02-15T02:22:02.642Z,93.5
2019-02-15T02:23:03.676Z,93.1
2019-02-15T02:24:03.903Z,91.7
2019-02-15T02:25:03.270Z,91
2019-02-15T02:26:04.061Z,89.6
2019-02-15T02:27:03.215Z,89.6
2019-02-15T02:28:03.542Z,89.1
2019-02-15T02:29:03.199Z,88.6
2019-02-15T02:30:03.560Z,88.6
2019-02-15T02:31:03.148Z,88.6
2019-02-15T02:32:04.100Z,88.4
2019-02-15T02:33:02.830Z,88.4
2019-02-15T02:34:03.377Z,87.9
2019-02-15T02:35:03.669Z,87.9
2019-02-15T02:36:03.176Z,86.5
2019-02-15T02:37:03.707Z,86.5
2019-02-15T02:38:03.275Z,85.4
2019-02-15T02:39:03.532Z,85.1
2019-02-15T02:40:03.415Z,84.2
2019-02-15T02:41:03.427Z,84.2
2019-02-15T02:42:03.240Z,84.2
2019-02-15T02:43:03.363Z,82.6
2019-02-15T02:44:02.904Z,82.6
2019-02-15T02:45:03.296Z,83.5
2019-02-15T02:46:02.892Z,83.5
2019-02-15T02:47:03.343Z,83.7
2019-02-15T02:48:02.913Z,83.7
2019-02-15T02:49:03.244Z,84.2
2019-02-15T02:50:03.938Z,85.1
2019-02-15T02:51:03.081Z,85.1
2019-02-15T02:52:03.788Z,84.9
2019-02-15T02:53:02.992Z,86.3
2019-02-15T02:54:03.989Z,84.4
2019-02-15T02:55:03.256Z,84.4
2019-02-15T02:56:03.435Z,85.1
2019-02-15T02:57:02.952Z,84.4
2019-02-15T02:58:03.118Z,84.2
2019-02-15T02:59:03.070Z,84.2
2019-02-15T03:00:03.257Z,84.4
2019-02-15T03:01:03.043Z,84.4
2019-02-15T03:02:03.324Z,86.3
2019-02-15T03:03:03.034Z,86.3
2019-02-15T03:04:03.415Z,86.1
2019-02-15T03:05:03.822Z,86.8
2019-02-15T03:06:03.274Z,87.7
2019-02-15T03:07:03.769Z,87.2
2019-02-15T03:08:03.423Z,87.2
2019-02-15T03:09:03.776Z,87.2
2019-02-15T03:10:03.377Z,87.2
2019-02-15T03:11:03.528Z,88.2
2019-02-15T03:12:03.172Z,88.2
2019-02-15T03:13:03.315Z,89.6
2019-02-15T03:14:12.228Z,89.8
2019-02-15T03:15:02.783Z,89.8
2019-02-15T03:16:02.991Z,90
2019-02-15T03:17:03.288Z,88.4
2019-02-15T03:18:03.419Z,89.6
2019-02-15T03:19:03.258Z,89.6
2019-02-15T03:20:03.074Z,89.3
2019-02-15T03:21:03.331Z,89.6
2019-02-15T03:22:03.100Z,89.1
2019-02-15T03:23:03.369Z,89.1
2019-02-15T03:24:02.592Z,88.9
2019-02-15T03:25:03.256Z,88.9
2019-02-15T03:26:03.528Z,87.9
2019-02-15T03:27:03.721Z,87.9
2019-02-15T03:28:03.806Z,87.5
2019-02-15T03:29:02.864Z,87.2
2019-02-15T03:30:03.073Z,87.2
2019-02-15T03:31:03.684Z,86.3
2019-02-15T03:32:03.206Z,87.9
2019-02-15T03:33:03.795Z,87.2
2019-02-15T03:34:03.076Z,87.2
2019-02-15T03:35:03.396Z,88.2
2019-02-15T03:36:03.743Z,88.2
2019-02-15T03:37:03.333Z,88.6
2019-02-15T03:38:03.075Z,88.6
2019-02-15T03:39:03.358Z,90
2019-02-15T03:40:02.720Z,90
2019-02-15T03:41:03.315Z,91.7
2019-02-15T03:42:03.802Z,93.5
2019-02-15T03:43:02.985Z,93.5
2019-02-15T03:44:04.073Z,93.3
2019-02-15T03:45:03.008Z,93.1
2019-02-15T03:46:03.540Z,92.8
2019-02-15T03:47:03.304Z,92.8
2019-02-15T03:48:03.481Z,91.4
2019-02-15T03:49:03.591Z,91
2019-02-15T03:50:05.337Z,91
2019-02-15T03:51:03.082Z,91
2019-02-15T03:52:03.462Z,91
2019-02-15T03:53:03.197Z,91
2019-02-15T03:54:03.424Z,91
2019-02-15T03:55:02.989Z,89.6
2019-02-15T03:56:03.157Z,88.6
2019-02-15T03:57:04.002Z,89.3
2019-02-15T03:58:03.389Z,89.3
2019-02-15T03:59:03.892Z,89.1
2019-02-15T04:00:03.622Z,89.1
2019-02-15T04:01:03.647Z,88.2
2019-02-15T04:02:03.260Z,88.2
2019-02-15T04:03:03.747Z,87
2019-02-15T04:04:03.346Z,87
2019-02-15T04:05:03.635Z,87.7
2019-02-15T04:06:03.364Z,86.1
2019-02-15T04:07:03.579Z,86.1
2019-02-15T04:08:03.033Z,88.6
2019-02-15T04:09:03.428Z,88.6
2019-02-15T04:10:03.068Z,90.3
2019-02-15T04:11:03.469Z,90.3
2019-02-15T04:12:03.556Z,90.5
2019-02-15T04:13:03.533Z,90.3
2019-02-15T04:14:02.723Z,90.5
2019-02-15T04:15:03.433Z,90.5
2019-02-15T04:16:03.604Z,89.6
2019-02-15T04:17:03.379Z,89.6
2019-02-15T04:18:03.828Z,90.3
2019-02-15T04:19:03.281Z,90
2019-02-15T04:20:03.561Z,89.6
2019-02-15T04:21:03.177Z,89.6
2019-02-15T04:22:03.407Z,89.6
2019-02-15T04:23:03.126Z,90.5
2019-02-15T04:24:03.651Z,91.2
2019-02-15T04:25:03.180Z,91
2019-02-15T04:26:03.461Z,91
2019-02-15T04:27:02.842Z,92.8
2019-02-15T04:28:03.338Z,92.8
2019-02-15T04:29:02.868Z,94
2019-02-15T04:30:03.527Z,95.2
2019-02-15T04:31:02.833Z,95.2
2019-02-15T04:32:03.559Z,95.4
2019-02-15T04:33:03.714Z,95.9
2019-02-15T04:34:03.177Z,94.7
2019-02-15T04:35:02.714Z,94.7
2019-02-15T04:36:03.067Z,96.1
2019-02-15T04:37:03.325Z,97
2019-02-15T04:38:03.835Z,96.8
2019-02-15T04:39:03.692Z,96.8
2019-02-15T04:40:03.457Z,95.9
2019-02-15T04:41:02.978Z,95.9
2019-02-15T04:42:03.414Z,93.8
2019-02-15T04:43:02.912Z,93.8
2019-02-15T04:44:03.508Z,92.1
2019-02-15T04:45:03.110Z,93.3
2019-02-15T04:46:03.158Z,93.5
2019-02-15T04:47:03.224Z,94.9
2019-02-15T04:48:03.732Z,94.9
2019-02-15T04:49:03.098Z,94.9
2019-02-15T04:50:02.821Z,94.9
2019-02-15T04:51:03.108Z,94.2
2019-02-15T04:52:03.501Z,94.2
2019-02-15T04:53:03.477Z,96.1
2019-02-15T04:54:03.625Z,95.4
2019-02-15T04:55:03.117Z,95.4
2019-02-15T04:56:03.544Z,96.3
2019-02-15T04:57:03.688Z,95.4
2019-02-15T04:58:03.023Z,95.6
2019-02-15T04:59:03.494Z,95.6
2019-02-15T05:00:03.213Z,96.3
2019-02-15T05:01:03.884Z,96.1
2019-02-15T05:02:03.064Z,97
2019-02-15T05:03:02.747Z,97
2019-02-15T05:04:03.184Z,98
2019-02-15T05:05:03.683Z,97.7
2019-02-15T05:06:03.254Z,97.5
2019-02-15T05:07:03.747Z,97.5
2019-02-15T05:08:03.110Z,97
2019-02-15T05:09:03.670Z,96.3
2019-02-15T05:10:03.296Z,95.6
2019-02-15T05:11:03.452Z,95.2
2019-02-15T05:12:02.872Z,94.7
2019-02-15T05:13:03.594Z,93.8
2019-02-15T05:14:02.801Z,93.8
2019-02-15T05:15:03.629Z,94.5
2019-02-15T05:16:04.076Z,94.5
2019-02-15T05:17:03.049Z,96.6
2019-02-15T05:18:03.512Z,96.6
2019-02-15T05:19:03.396Z,95.9
2019-02-15T05:20:03.811Z,95.4
2019-02-15T05:21:03.284Z,96.3
2019-02-15T05:22:03.710Z,98.9
2019-02-15T05:23:02.919Z,98.9
2019-02-15T05:24:03.118Z,100.3
2019-02-15T05:25:03.199Z,100.3
2019-02-15T05:26:03.340Z,103.8
2019-02-15T05:27:02.851Z,103.8
2019-02-15T05:28:02.966Z,104.5
2019-02-15T05:29:03.591Z,104.5
2019-02-15T05:30:04.047Z,105
2019-02-15T05:31:03.061Z,105
2019-02-15T05:32:03.794Z,105.9
2019-02-15T05:33:03.065Z,105.9
2019-02-15T05:34:03.293Z,107.3
2019-02-15T05:35:02.842Z,105.2
2019-02-15T05:36:03.159Z,105.7
2019-02-15T05:37:03.741Z,105.4
2019-02-15T05:38:03.465Z,105.4
2019-02-15T05:39:03.477Z,105.9
2019-02-15T05:40:03.467Z,105.9
2019-02-15T05:41:03.781Z,105.7
2019-02-15T05:42:03.097Z,105.7
2019-02-15T05:43:03.821Z,105.7
2019-02-15T05:44:03.761Z,104.3
2019-02-15T05:45:05.086Z,107.3
2019-02-15T05:46:03.361Z,107.8
2019-02-15T05:47:03.732Z,107.8
2019-02-15T05:48:03.285Z,107.3
2019-02-15T05:49:03.537Z,107.3
2019-02-15T05:50:03.394Z,107.5
2019-02-15T05:51:03.619Z,107.5
2019-02-15T05:52:03.136Z,109.4
2019-02-15T05:53:03.563Z,109.2
2019-02-15T05:54:03.065Z,108.7
2019-02-15T05:55:03.380Z,108.7
2019-02-15T05:56:03.650Z,108.9
2019-02-15T05:57:03.005Z,108.7
2019-02-15T05:58:03.898Z,108.7
2019-02-15T05:59:03.429Z,108.9
2019-02-15T06:00:03.962Z,108.5
2019-02-15T06:01:03.056Z,110.6
2019-02-15T06:02:03.451Z,110.6
2019-02-15T06:03:03.096Z,109.2
2019-02-15T06:04:03.655Z,109.2
2019-02-15T06:05:03.109Z,110.3
2019-02-15T06:06:03.377Z,110.3
2019-02-15T06:07:03.624Z,109.4
2019-02-15T06:08:03.310Z,109.6
2019-02-15T06:09:03.240Z,109.4
2019-02-15T06:10:03.087Z,108
2019-02-15T06:11:08.697Z,108
2019-02-15T06:12:03.139Z,106.4
2019-02-15T06:13:03.470Z,106.4
2019-02-15T06:14:03.715Z,108
2019-02-15T06:15:16.078Z,108
2019-02-15T06:16:03.515Z,105.7
2019-02-15T06:17:03.850Z,106.8
2019-02-15T06:18:03.607Z,106.8
2019-02-15T06:19:02.933Z,106.8
2019-02-15T06:20:03.287Z,108.5
2019-02-15T06:21:03.715Z,106.8
2019-02-15T06:22:02.823Z,106.8
2019-02-15T06:23:03.609Z,102.2
2019-02-15T06:24:03.061Z,101.2
2019-02-15T06:25:04.045Z,100.8
2019-02-15T06:26:03.279Z,100.8
2019-02-15T06:27:03.593Z,95.4
2019-02-15T06:28:02.959Z,94.2
2019-02-15T06:29:03.596Z,94.2
2019-02-15T06:30:03.532Z,93.8
2019-02-15T06:31:03.526Z,91.4
2019-02-15T06:32:03.026Z,91.4
2019-02-15T06:33:03.399Z,92.4
2019-02-15T06:34:03.402Z,92.8
2019-02-15T06:35:03.401Z,92.8
2019-02-15T06:36:03.796Z,93.1
2019-02-15T06:37:03.112Z,93.1
2019-02-15T06:38:03.610Z,91.4
2019-02-15T06:39:03.133Z,91.4
2019-02-15T06:40:03.583Z,91.4
2019-02-15T06:41:02.875Z,92.1
2019-02-15T06:42:03.331Z,92.4
2019-02-15T06:43:03.157Z,91
2019-02-15T06:44:03.482Z,91
2019-02-15T06:45:03.022Z,90.3
2019-02-15T06:46:03.258Z,90.3
2019-02-15T06:47:03.054Z,88.2
2019-02-15T06:48:03.670Z,88.2
2019-02-15T06:49:03.026Z,88.9
2019-02-15T06:50:03.257Z,88.9
2019-02-15T06:51:03.197Z,88.4
2019-02-15T06:52:03.040Z,87.2
2019-02-15T06:53:03.486Z,87.2
2019-02-15T06:54:03.831Z,87.2
2019-02-15T06:55:03.287Z,88.2
2019-02-15T06:56:02.982Z,88.6
2019-02-15T06:57:03.313Z,88.6
2019-02-15T06:58:03.561Z,90
2019-02-15T06:59:03.036Z,89.1
2019-02-15T07:00:03.874Z,89.1
2019-02-15T07:01:02.997Z,87.9
2019-02-15T07:02:03.909Z,87.2
2019-02-15T07:03:02.934Z,87.2
2019-02-15T07:04:03.607Z,87.2
2019-02-15T07:05:03.499Z,87
2019-02-15T07:06:03.771Z,87
2019-02-15T07:07:03.850Z,86.8
2019-02-15T07:08:03.613Z,86.8
2019-02-15T07:09:03.746Z,87.2
2019-02-15T07:10:03.085Z,87.2
2019-02-15T07:11:03.853Z,88.9
2019-02-15T07:12:03.074Z,88.9
2019-02-15T07:13:03.937Z,89.6
2019-02-15T07:14:03.176Z,90.3
2019-02-15T07:15:03.991Z,90.3
2019-02-15T07:16:03.223Z,91.9
2019-02-15T07:17:03.415Z,91.9
2019-02-15T07:18:03.041Z,90.7
2019-02-15T07:19:03.540Z,90.7
2019-02-15T07:20:02.896Z,91
2019-02-15T07:21:03.465Z,91.2
2019-02-15T07:22:03.586Z,90.7
2019-02-15T07:23:02.966Z,91
2019-02-15T07:24:03.378Z,91
2019-02-15T07:25:03.486Z,91
2019-02-15T07:26:03.644Z,90.5
2019-02-15T07:27:03.354Z,91.9
2019-02-15T07:28:02.711Z,91.9
2019-02-15T07:29:03.286Z,93.8
2019-02-15T07:30:03.869Z,93.5
2019-02-15T07:31:02.992Z,93.5
2019-02-15T07:32:03.479Z,93.5
2019-02-15T07:33:02.935Z,91.9
2019-02-15T07:34:03.387Z,91.7
2019-02-15T07:35:03.125Z,91.4
2019-02-15T07:36:03.264Z,89.8
2019-02-15T07:37:02.957Z,89.8
2019-02-15T07:38:03.369Z,89.8
2019-02-15T07:39:02.851Z,89.8
2019-02-15T07:40:03.305Z,90.7
2019-02-15T07:41:03.919Z,90.7
2019-02-15T07:42:03.133Z,92.4
2019-02-15T07:43:03.906Z,91.2
2019-02-15T07:44:03.341Z,91.4
2019-02-15T07:45:03.841Z,91.7
2019-02-15T07:46:03.641Z,91.7
2019-02-15T07:47:03.687Z,91
2019-02-15T07:48:03.058Z,91
2019-02-15T07:49:03.230Z,90.7
2019-02-15T07:50:03.898Z,90.7
2019-02-15T07:51:10.298Z,91.2
2019-02-15T07:52:02.848Z,91.2
2019-02-15T07:53:03.246Z,92.8
2019-02-15T07:54:03.706Z,92.6
2019-02-15T07:55:03.193Z,92.6
2019-02-15T07:56:02.919Z,92.8
2019-02-15T07:57:03.495Z,92.4
2019-02-15T07:58:03.861Z,92.8
2019-02-15T07:59:03.407Z,92.8
2019-02-15T08:00:03.775Z,93.1
2019-02-15T08:01:03.288Z,93.1
2019-02-15T08:02:03.764Z,93.1
2019-02-15T08:03:03.441Z,91.7
2019-02-15T08:04:03.926Z,92.4
2019-02-15T08:05:03.359Z,92.8
2019-02-15T08:06:03.380Z,90.5
2019-02-15T08:07:02.655Z,91.2
2019-02-15T08:08:03.298Z,91.2
2019-02-15T08:09:02.992Z,92.8
2019-02-15T08:10:03.418Z,92.8
2019-02-15T08:11:03.200Z,94
2019-02-15T08:12:03.222Z,94
2019-02-15T08:13:03.577Z,92.6
2019-02-15T08:14:03.277Z,93.1
2019-02-15T08:15:03.709Z,92.1
2019-02-15T08:16:03.222Z,91.2
2019-02-15T08:17:03.766Z,90.3
2019-02-15T08:18:02.849Z,89.3
2019-02-15T08:19:03.408Z,89.3
2019-02-15T08:20:03.950Z,90
2019-02-15T08:21:03.550Z,90
2019-02-15T08:22:03.684Z,92.1
2019-02-15T08:23:03.483Z,92.1
2019-02-15T08:24:03.754Z,92.1
2019-02-15T08:25:03.253Z,92.4
2019-02-15T08:26:03.725Z,92.4
2019-02-15T08:27:03.288Z,93.1
2019-02-15T08:28:03.612Z,92.4
2019-02-15T08:29:03.238Z,92.1
2019-02-15T08:30:03.961Z,92.1
2019-02-15T08:31:02.901Z,91.2
2019-02-15T08:32:03.403Z,90.5
2019-02-15T08:33:02.724Z,91.2
2019-02-15T08:34:03.118Z,91.2
2019-02-15T08:35:03.736Z,91
2019-02-15T08:36:03.217Z,91
2019-02-15T08:37:03.773Z,91.9
2019-02-15T08:38:03.165Z,90.7
2019-02-15T08:39:03.730Z,91.4
2019-02-15T08:40:03.070Z,91.2
2019-02-15T08:41:03.678Z,91.2
2019-02-15T08:42:04.906Z,90.5
2019-02-15T08:43:03.568Z,90.5
2019-02-15T08:44:02.884Z,91.2
2019-02-15T08:45:03.449Z,91.2
2019-02-15T08:46:03.750Z,90.7
2019-02-15T08:47:03.206Z,91
2019-02-15T08:48:03.510Z,91
2019-02-15T08:49:03.216Z,91.7
2019-02-15T08:50:03.761Z,91.7
2019-02-15T08:51:02.985Z,90.7
2019-02-15T08:52:03.363Z,91
2019-02-15T08:53:03.142Z,89.1
2019-02-15T08:54:03.447Z,89.1
2019-02-15T08:55:02.899Z,88.2
2019-02-15T08:56:03.439Z,86.3
2019-02-15T08:57:02.933Z,86.3
2019-02-15T08:58:03.232Z,85.1
2019-02-15T08:59:03.842Z,86.1
2019-02-15T09:00:03.424Z,87
2019-02-15T09:01:02.903Z,87
2019-02-15T09:02:03.244Z,87.2
2019-02-15T09:03:03.426Z,89.8
2019-02-15T09:04:03.623Z,90.7
2019-02-15T09:05:03.845Z,90.7
2019-02-15T09:06:02.924Z,89.3
2019-02-15T09:07:03.488Z,89.6
2019-02-15T09:08:03.125Z,89.6
2019-02-15T09:09:03.080Z,88.4
2019-02-15T09:10:03.755Z,87.7
2019-02-15T09:11:03.241Z,87
2019-02-15T09:12:02.969Z,87
2019-02-15T09:13:03.440Z,87.9
2019-02-15T09:14:02.950Z,87.9
2019-02-15T09:15:03.439Z,87.7
2019-02-15T09:16:10.952Z,87.7
2019-02-15T09:17:03.044Z,88.2
2019-02-15T09:18:03.405Z,88.9
2019-02-15T09:19:02.920Z,88.9
2019-02-15T09:20:03.427Z,88.6
2019-02-15T09:21:02.873Z,88.6
2019-02-15T09:22:03.038Z,87
2019-02-15T09:23:03.744Z,87
2019-02-15T09:24:03.371Z,86.3
2019-02-15T09:25:03.218Z,86.3
2019-02-15T09:26:03.535Z,86.5
2019-02-15T09:27:03.123Z,85.8
2019-02-15T09:28:03.814Z,85.8
2019-02-15T09:29:03.206Z,84.4
2019-02-15T09:30:03.034Z,83.5
2019-02-15T09:31:03.058Z,85.4
2019-02-15T09:32:02.863Z,85.4
2019-02-15T09:33:03.283Z,86.8
2019-02-15T09:34:03.413Z,87
2019-02-15T09:35:03.344Z,87
2019-02-15T09:36:03.027Z,87
2019-02-15T09:37:03.301Z,85.1
2019-02-15T09:38:03.740Z,85.8
2019-02-15T09:39:03.235Z,85.4
2019-02-15T09:40:03.641Z,84.9
2019-02-15T09:41:03.091Z,84.2
2019-02-15T09:42:03.113Z,84.4
2019-02-15T09:43:03.806Z,84.4
2019-02-15T09:44:03.499Z,85.4
2019-02-15T09:45:03.461Z,85.4
2019-02-15T09:46:02.942Z,85.8
2019-02-15T09:47:03.414Z,85.8
2019-02-15T09:48:02.948Z,87.2
2019-02-15T09:49:03.719Z,84.2
2019-02-15T09:50:03.810Z,87.2
2019-02-15T09:51:03.037Z,87.2
2019-02-15T09:52:03.846Z,87.2
2019-02-15T09:53:03.244Z,86.8
2019-02-15T09:54:02.846Z,86.8
2019-02-15T09:55:03.384Z,87.9
2019-02-15T09:56:03.207Z,87.9
2019-02-15T09:57:03.704Z,89.6
2019-02-15T09:58:03.504Z,88.9
2019-02-15T09:59:03.559Z,88.9
2019-02-15T10:00:03.040Z,87.5
2019-02-15T10:01:03.295Z,87.5
2019-02-15T10:02:02.891Z,88.9
2019-02-15T10:03:03.652Z,88.9
2019-02-15T10:04:02.964Z,88.2
2019-02-15T10:05:04.055Z,88.4
2019-02-15T10:06:03.262Z,89.3
2019-02-15T10:07:03.810Z,89.3
2019-02-15T10:08:03.103Z,89.8
2019-02-15T10:09:03.286Z,90.7
2019-02-15T10:10:02.981Z,90.7
2019-02-15T10:11:03.499Z,90
2019-02-15T10:12:02.935Z,92.1
2019-02-15T10:13:03.503Z,91.4
2019-02-15T10:14:03.113Z,91.4
2019-02-15T10:15:03.723Z,91.9
2019-02-15T10:16:03.038Z,91.9
2019-02-15T10:17:03.735Z,91.9
2019-02-15T10:18:03.456Z,91.9
2019-02-15T10:19:03.523Z,90.3
2019-02-15T10:20:03.082Z,90.3
2019-02-15T10:21:03.561Z,90.5
2019-02-15T10:22:03.153Z,89.6
2019-02-15T10:23:03.376Z,89.6
2019-02-15T10:24:03.125Z,89.1
2019-02-15T10:25:03.602Z,89.1
2019-02-15T10:26:03.692Z,88.9
2019-02-15T10:27:03.278Z,88.9
2019-02-15T10:28:03.827Z,90.3
2019-02-15T10:29:03.331Z,90.3
2019-02-15T10:30:03.759Z,91.4
2019-02-15T10:31:03.117Z,91.4
2019-02-15T10:32:03.653Z,91.4
2019-02-15T10:33:03.057Z,90.7
2019-02-15T10:34:03.600Z,90.7
2019-02-15T10:35:03.569Z,91.9
2019-02-15T10:36:02.940Z,94
2019-02-15T10:37:03.207Z,95.4
2019-02-15T10:38:03.442Z,95.4
2019-02-15T10:39:02.947Z,96.6
2019-02-15T10:40:03.351Z,96.8
2019-02-15T10:41:02.953Z,96.8
2019-02-15T10:42:03.593Z,98
2019-02-15T10:43:02.558Z,97.3
2019-02-15T10:44:03.387Z,97
2019-02-15T10:45:03.841Z,97
2019-02-15T10:46:02.922Z,97.3
2019-02-15T10:47:03.235Z,98.2
2019-02-15T10:48:03.055Z,96.6
2019-02-15T10:49:03.139Z,96.6
2019-02-15T10:50:05.432Z,98
2019-02-15T10:51:03.256Z,98
2019-02-15T10:52:03.816Z,98.9
2019-02-15T10:53:03.774Z,99.1
2019-02-15T10:54:03.666Z,99.1
2019-02-15T10:55:03.172Z,98.7
2019-02-15T10:56:03.491Z,98.7
2019-02-15T10:57:03.723Z,98
2019-02-15T10:58:02.873Z,98
2019-02-15T10:59:03.436Z,98.9
2019-02-15T11:00:03.641Z,98.2
2019-02-15T11:01:03.470Z,97.3
2019-02-15T11:02:02.945Z,97.3
2019-02-15T11:03:03.375Z,96.1
2019-02-15T11:04:03.543Z,97.5
2019-02-15T11:05:02.981Z,97.5
2019-02-15T11:06:03.473Z,98.7
2019-02-15T11:07:02.662Z,98.4
2019-02-15T11:08:03.079Z,98.7
2019-02-15T11:09:03.206Z,98.7
2019-02-15T11:10:03.508Z,98
2019-02-15T11:11:03.766Z,97.5
2019-02-15T11:12:03.680Z,98.4
2019-02-15T11:13:03.053Z,98.4
2019-02-15T11:14:03.393Z,98.9
2019-02-15T11:15:02.927Z,98.9
2019-02-15T11:16:03.296Z,98
2019-02-15T11:17:03.605Z,98.2
2019-02-15T11:18:02.915Z,99.4
2019-02-15T11:19:03.447Z,100.5
2019-02-15T11:20:03.287Z,100.5
2019-02-15T11:21:03.360Z,100.8
2019-02-15T11:22:03.601Z,100.8
2019-02-15T11:23:02.911Z,101.5
2019-02-15T11:24:03.798Z,101.5
2019-02-15T11:25:03.074Z,101.9
2019-02-15T11:26:04.902Z,101.9
2019-02-15T11:27:03.707Z,101.5
2019-02-15T11:28:03.522Z,99.8
2019-02-15T11:29:03.764Z,99.8
2019-02-15T11:30:03.296Z,99.8
2019-02-15T11:31:03.587Z,99.6
2019-02-15T11:32:03.602Z,99.8
2019-02-15T11:33:03.898Z,99.8
2019-02-15T11:34:03.092Z,101.7
2019-02-15T11:35:02.936Z,101.2
2019-02-15T11:36:03.291Z,99.6
2019-02-15T11:37:03.855Z,99.6
2019-02-15T11:38:03.441Z,97.3
2019-02-15T11:39:03.011Z,95.9
2019-02-15T11:40:03.534Z,95.9
2019-02-15T11:41:11.699Z,95.4
2019-02-15T11:42:03.242Z,95.2
2019-02-15T11:43:03.654Z,94.9
2019-02-15T11:44:03.499Z,94.9
2019-02-15T11:45:03.725Z,95.4
2019-02-15T11:46:03.749Z,95.4
2019-02-15T11:47:03.769Z,95.4
2019-02-15T11:48:03.837Z,94.5
2019-02-15T11:49:03.471Z,94.5
2019-02-15T11:50:03.719Z,93.3
2019-02-15T11:51:03.377Z,93.3
2019-02-15T11:52:03.737Z,93.5
2019-02-15T11:53:02.853Z,93.5
2019-02-15T11:54:03.691Z,92.8
2019-02-15T11:55:03.132Z,93.3
2019-02-15T11:56:03.605Z,93.8
2019-02-15T11:57:02.779Z,93.8
2019-02-15T11:58:03.736Z,93.3
2019-02-15T11:59:03.130Z,93.3
2019-02-15T12:00:03.475Z,93.3
2019-02-15T12:01:03.147Z,93.3
2019-02-15T12:02:06.850Z,93.3
2019-02-15T12:03:03.972Z,93.1
2019-02-15T12:04:02.685Z,93.1
2019-02-15T12:05:03.256Z,91.2
2019-02-15T12:06:04.101Z,90.5
2019-02-15T12:07:03.779Z,90.7
2019-02-15T12:08:03.106Z,90.7
2019-02-15T12:09:03.473Z,89.8
2019-02-15T12:10:03.636Z,88.4
2019-02-15T12:11:03.319Z,88.4
2019-02-15T12:12:11.292Z,87.2
2019-02-15T12:13:02.036Z,85.6
2019-02-15T12:14:03.635Z,85.4
2019-02-15T12:15:03.371Z,85.4
2019-02-15T12:16:03.773Z,85.4
2019-02-15T12:17:06.221Z,84.9
2019-02-15T12:18:03.938Z,83
2019-02-15T12:19:02.908Z,82.3
2019-02-15T12:20:03.551Z,82.1
2019-02-15T12:21:03.104Z,83.3
2019-02-15T12:22:03.747Z,83.3
2019-02-15T12:23:02.874Z,84.2
2019-02-15T12:24:04.042Z,84.2
2019-02-15T12:25:03.735Z,84.2
2019-02-15T12:26:03.226Z,84.2
2019-02-15T12:27:03.299Z,84.9
2019-02-15T12:28:03.806Z,84.9
2019-02-15T12:29:03.218Z,84.4
2019-02-15T12:30:03.755Z,83.7
2019-02-15T12:31:03.601Z,83.7
2019-02-15T12:32:03.889Z,82.1
2019-02-15T12:33:03.285Z,82.1
2019-02-15T12:34:03.566Z,82.1
2019-02-15T12:35:03.327Z,82.1
2019-02-15T12:36:03.497Z,82.8
2019-02-15T12:37:03.380Z,83
2019-02-15T12:38:03.467Z,83.3
2019-02-15T12:39:03.089Z,83.3
2019-02-15T12:40:03.133Z,85.4
2019-02-15T12:41:03.395Z,86.8
2019-02-15T12:42:03.234Z,86.8
2019-02-15T12:43:03.747Z,86.3
2019-02-15T12:44:03.147Z,86.1
2019-02-15T12:45:03.738Z,86.1
2019-02-15T12:46:03.793Z,86.1
2019-02-15T12:47:03.535Z,86.5
2019-02-15T12:48:02.912Z,86.5
2019-02-15T12:49:03.665Z,87.7
2019-02-15T12:50:03.935Z,87.7
2019-02-15T12:51:03.167Z,88.6
2019-02-15T12:52:03.643Z,87.7
2019-02-15T12:53:03.146Z,87.7
2019-02-15T12:54:03.263Z,87.5
2019-02-15T12:55:04.261Z,87.5
2019-02-15T12:56:03.028Z,88.4
2019-02-15T12:57:03.125Z,88.4
2019-02-15T12:58:03.731Z,90
2019-02-15T12:59:03.279Z,90
2019-02-15T13:00:03.281Z,90.5
2019-02-15T13:01:03.407Z,90.3
2019-02-15T13:02:03.112Z,91
2019-02-15T13:03:03.631Z,89.3
2019-02-15T13:04:03.663Z,89.3
2019-02-15T13:05:03.114Z,88.6
2019-02-15T13:06:03.426Z,88.6
2019-02-15T13:07:03.679Z,90
2019-02-15T13:08:03.315Z,89.8
2019-02-15T13:09:03.075Z,91.2
2019-02-15T13:10:03.468Z,91.2
2019-02-15T13:11:03.589Z,94.7
2019-02-15T13:12:03.081Z,95.4
2019-02-15T13:13:03.553Z,95.4
2019-02-15T13:14:02.874Z,97.5
2019-02-15T13:15:03.739Z,97.7
2019-02-15T13:16:03.774Z,98.4
2019-02-15T13:17:03.365Z,98.4
2019-02-15T13:18:03.561Z,100.5
2019-02-15T13:19:03.133Z,101
2019-02-15T13:20:03.428Z,101.9
2019-02-15T13:21:03.030Z,101.9